createdAt,value
2022-09-07T00:01:40.118Z,2.78
2022-09-07T00:04:42.038Z,2.67
2022-09-07T00:07:44.073Z,2.90
2022-09-07T00:11:05.515Z,2.70
2022-09-07T00:14:08.096Z,2.80
2022-09-07T00:17:10.058Z,2.50
2022-09-07T00:20:12.801Z,2.65
2022-09-07T00:23:14.905Z,2.63
2022-09-07T00:26:20.671Z,2.50
2022-09-07T00:29:22.677Z,2.72
2022-09-07T00:32:24.766Z,2.60
2022-09-07T00:35:27.900Z,2.23
2022-09-07T00:38:30.027Z,2.10
2022-09-07T00:41:32.138Z,2.00
2022-09-07T00:44:42.954Z,2.10
2022-09-07T00:48:08.501Z,2.45
2022-09-07T00:51:18.584Z,2.00
2022-09-07T00:54:44.059Z,2.08
2022-09-07T00:57:50.679Z,1.88
2022-09-07T01:00:52.639Z,2.15
2022-09-07T01:03:57.540Z,2.05
2022-09-07T01:06:59.782Z,2.00
2022-09-07T01:10:02.334Z,2.10
2022-09-07T01:13:05.148Z,1.95
2022-09-07T01:16:22.811Z,2.15
2022-09-07T01:19:34.835Z,2.20
2022-09-07T01:22:45.961Z,2.42
2022-09-07T01:26:31.110Z,2.03
2022-09-07T01:29:44.607Z,2.08
2022-09-07T01:33:08.503Z,1.98
2022-09-07T01:36:36.458Z,2.15
2022-09-07T01:39:54.653Z,1.77
2022-09-07T01:43:04.255Z,2.00
2022-09-07T01:46:15.805Z,1.90
2022-09-07T01:49:23.025Z,2.05
2022-09-07T01:52:33.896Z,2.00
2022-09-07T01:55:41.442Z,2.08
2022-09-07T01:58:53.756Z,2.15
2022-09-07T02:02:08.262Z,1.80
2022-09-07T02:05:19.868Z,1.70
2022-09-07T02:08:32.328Z,2.28
2022-09-07T02:11:38.514Z,2.00
2022-09-07T02:14:51.887Z,1.88
2022-09-07T02:18:02.073Z,1.83
2022-09-07T02:21:07.503Z,2.00
2022-09-07T02:24:18.248Z,1.80
2022-09-07T02:27:34.383Z,1.60
2022-09-07T02:30:37.235Z,1.80
2022-09-07T02:33:39.425Z,2.20
2022-09-07T02:36:45.979Z,2.10
2022-09-07T02:39:49.508Z,2.00
2022-09-07T02:42:51.928Z,1.88
2022-09-07T02:46:27.222Z,2.00
2022-09-07T02:49:47.506Z,1.92
2022-09-07T02:53:04.506Z,2.00
2022-09-07T02:56:19.976Z,1.88
2022-09-07T02:59:43.514Z,1.98
2022-09-07T03:02:57.033Z,2.42
2022-09-07T03:06:03.612Z,1.70
2022-09-07T03:09:10.240Z,2.25
2022-09-07T03:12:12.920Z,1.95
2022-09-07T03:15:17.855Z,2.22
2022-09-07T03:18:19.964Z,2.22
2022-09-07T03:21:21.969Z,2.13
2022-09-07T03:24:23.895Z,2.23
2022-09-07T03:27:25.827Z,2.40
2022-09-07T03:30:27.741Z,2.13
2022-09-07T03:33:29.735Z,2.17
2022-09-07T03:36:33.005Z,2.27
2022-09-07T03:39:36.510Z,2.05
2022-09-07T03:42:39.271Z,2.22
2022-09-07T03:45:41.242Z,2.33
2022-09-07T03:48:43.185Z,2.03
2022-09-07T03:51:45.215Z,2.30
2022-09-07T03:54:47.354Z,2.73
2022-09-07T03:57:49.189Z,3.00
2022-09-07T04:00:51.254Z,3.40
2022-09-07T04:03:53.774Z,3.10
2022-09-07T04:06:55.818Z,3.35
2022-09-07T04:09:57.791Z,2.40
2022-09-07T04:12:59.734Z,2.50
2022-09-07T04:16:19.503Z,2.40
2022-09-07T04:19:21.845Z,2.60
2022-09-07T04:22:23.831Z,3.13
2022-09-07T04:25:25.798Z,2.57
2022-09-07T04:28:27.742Z,2.97
2022-09-07T04:31:30.311Z,2.57
2022-09-07T04:34:32.230Z,2.63
2022-09-07T04:37:34.131Z,2.33
2022-09-07T04:40:36.290Z,2.13
2022-09-07T04:43:39.839Z,2.13
2022-09-07T04:46:41.877Z,2.35
2022-09-07T04:49:43.934Z,2.17
2022-09-07T04:52:46.586Z,2.07
2022-09-07T04:55:48.569Z,2.38
2022-09-07T04:58:51.025Z,1.67
2022-09-07T05:01:53.054Z,1.85
2022-09-07T05:04:57.377Z,1.67
2022-09-07T05:08:02.758Z,1.48
2022-09-07T05:11:04.805Z,1.87
2022-09-07T05:14:07.194Z,1.50
2022-09-07T05:17:09.358Z,1.80
2022-09-07T05:20:11.326Z,1.67
2022-09-07T05:23:13.263Z,1.27
2022-09-07T05:26:15.113Z,1.40
2022-09-07T05:32:38.922Z,1.73
2022-09-07T05:35:40.923Z,1.53
2022-09-07T05:38:43.377Z,1.20
2022-09-07T05:41:45.270Z,1.70
2022-09-07T05:44:47.254Z,1.50
2022-09-07T05:47:50.904Z,1.30
2022-09-07T05:50:53.485Z,1.38
2022-09-07T05:53:56.397Z,1.55
2022-09-07T06:00:00.123Z,1.63
2022-09-07T06:03:02.181Z,1.30
2022-09-07T06:06:07.165Z,1.60
2022-09-07T06:09:12.677Z,1.52
2022-09-07T06:12:14.611Z,1.63
2022-09-07T06:15:17.174Z,1.47
2022-09-07T06:18:19.107Z,1.15
2022-09-07T06:21:23.383Z,1.13
2022-09-07T06:24:25.268Z,1.20
2022-09-07T06:27:27.639Z,1.30
2022-09-07T06:30:29.730Z,1.00
2022-09-07T06:33:32.284Z,1.10
2022-09-07T06:39:37.401Z,1.20
2022-09-07T06:42:39.541Z,1.17
2022-09-07T06:45:43.927Z,0.90
2022-09-07T06:48:46.283Z,0.80
2022-09-07T06:51:48.337Z,1.10
2022-09-07T06:57:59.448Z,1.38
2022-09-07T07:01:12.309Z,1.10
2022-09-07T07:04:14.468Z,2.58
2022-09-07T07:07:16.553Z,0.95
2022-09-07T07:10:23.596Z,0.85
2022-09-07T07:13:26.354Z,1.00
2022-09-07T07:16:28.310Z,0.90
2022-09-07T07:19:30.514Z,0.80
2022-09-07T07:22:47.655Z,1.20
2022-09-07T07:25:49.641Z,1.20
2022-09-07T07:31:59.484Z,1.75
2022-09-07T07:35:01.759Z,1.80
2022-09-07T07:48:15.175Z,1.15
2022-09-07T07:51:17.113Z,10.27
2022-09-07T07:54:21.482Z,2.33
2022-09-07T07:57:23.880Z,1.05
2022-09-07T08:00:37.736Z,1.27
2022-09-07T08:03:48.679Z,1.20
2022-09-07T08:09:53.084Z,0.90
2022-09-07T08:12:54.973Z,1.10
2022-09-07T08:16:00.797Z,1.05
2022-09-07T08:19:02.692Z,0.93
2022-09-07T08:22:04.622Z,0.90
2022-09-07T08:25:07.583Z,0.73
2022-09-07T08:28:09.491Z,1.00
2022-09-07T08:31:14.155Z,0.88
2022-09-07T08:34:16.929Z,1.25
2022-09-07T08:40:20.775Z,2.33
2022-09-07T08:43:37.633Z,1.10
2022-09-07T08:46:59.485Z,0.98
2022-09-07T08:50:11.465Z,1.00
2022-09-07T08:53:16.829Z,10.50
2022-09-07T08:56:18.767Z,3.30
2022-09-07T08:59:43.486Z,1.20
2022-09-07T09:02:45.992Z,0.90
2022-09-07T09:06:00.670Z,1.15
2022-09-07T09:09:17.812Z,1.20
2022-09-07T09:12:40.533Z,1.00
2022-09-07T09:15:53.129Z,1.05
2022-09-07T09:19:40.027Z,1.50
2022-09-07T09:22:43.102Z,3.50
2022-09-07T09:25:52.616Z,1.35
2022-09-07T09:28:55.241Z,1.10
2022-09-07T09:35:12.173Z,1.20
2022-09-07T09:38:29.399Z,1.10
2022-09-07T09:41:38.601Z,0.98
2022-09-07T09:44:42.260Z,0.80
2022-09-07T09:47:50.227Z,1.00
2022-09-07T09:54:24.684Z,4.93
2022-09-07T10:01:27.293Z,1.10
2022-09-07T10:04:34.990Z,0.82
2022-09-07T10:07:36.944Z,1.00
2022-09-07T10:10:49.709Z,2.28
2022-09-07T10:17:10.665Z,0.80
2022-09-07T10:20:18.943Z,1.00
2022-09-07T10:23:23.440Z,1.50
2022-09-07T10:26:34.960Z,0.82
2022-09-07T10:29:37.340Z,0.70
2022-09-07T10:32:46.756Z,0.70
2022-09-07T10:36:14.912Z,1.05
2022-09-07T10:39:45.091Z,0.88
2022-09-07T10:43:26.307Z,1.17
2022-09-07T10:50:33.650Z,0.93
2022-09-07T10:57:39.156Z,1.10
2022-09-07T11:01:06.855Z,1.30
2022-09-07T11:04:33.623Z,1.20
2022-09-07T11:07:44.635Z,0.90
2022-09-07T11:11:09.007Z,1.00
2022-09-07T11:14:19.462Z,1.00
2022-09-07T11:17:25.215Z,0.90
2022-09-07T11:20:30.280Z,0.80
2022-09-07T11:23:47.317Z,1.10
2022-09-07T11:26:56.750Z,1.00
2022-09-07T11:30:20.084Z,0.88
2022-09-07T11:33:27.065Z,0.70
2022-09-07T11:36:37.628Z,0.80
2022-09-07T11:39:45.047Z,1.00
2022-09-07T11:42:55.951Z,4.80
2022-09-07T11:46:01.188Z,2.30
2022-09-07T11:49:06.837Z,1.67
2022-09-07T11:52:23.171Z,0.90
2022-09-07T11:55:29.510Z,2.20
2022-09-07T11:58:43.628Z,3.03
2022-09-07T12:02:15.903Z,1.13
2022-09-07T12:05:25.241Z,1.88
2022-09-07T12:08:51.636Z,1.10
2022-09-07T12:12:08.331Z,2.30
2022-09-07T12:15:12.924Z,1.00
2022-09-07T12:18:41.882Z,1.88
2022-09-07T12:21:55.855Z,1.88
2022-09-07T12:25:08.604Z,2.22
2022-09-07T12:32:52.325Z,1.20
2022-09-07T12:35:26.488Z,1.10
2022-09-07T12:38:31.248Z,0.93
2022-09-07T12:45:34.011Z,1.02
2022-09-07T12:48:46.832Z,0.70
2022-09-07T12:51:59.738Z,0.70
2022-09-07T12:55:29.269Z,1.00
2022-09-07T12:58:43.172Z,0.70
2022-09-07T13:01:45.105Z,0.80
2022-09-07T13:05:08.691Z,1.10
2022-09-07T13:08:41.605Z,0.80
2022-09-07T13:11:43.695Z,0.82
2022-09-07T13:14:52.129Z,0.98
2022-09-07T13:17:57.415Z,0.80
2022-09-07T13:21:30.638Z,1.20
2022-09-07T13:27:58.600Z,2.30
2022-09-07T13:31:25.108Z,1.77
2022-09-07T13:34:53.340Z,2.03
2022-09-07T13:37:59.195Z,1.48
2022-09-07T13:41:07.413Z,1.35
2022-09-07T13:44:25.010Z,1.30
2022-09-07T13:47:33.869Z,1.40
2022-09-07T13:51:00.241Z,1.10
2022-09-07T13:54:20.151Z,1.10
2022-09-07T13:57:30.947Z,1.23
2022-09-07T14:00:34.178Z,1.00
2022-09-07T14:04:07.601Z,5.30
2022-09-07T14:07:20.851Z,2.33
2022-09-07T14:10:25.640Z,1.40
2022-09-07T14:13:27.701Z,2.03
2022-09-07T14:16:30.775Z,7.45
2022-09-07T14:19:39.745Z,3.28
2022-09-07T14:22:42.911Z,2.85
2022-09-07T14:29:22.371Z,6.47
2022-09-07T14:32:25.375Z,4.95
2022-09-07T14:35:32.585Z,3.42
2022-09-07T14:42:03.859Z,1.70
2022-09-07T14:45:22.044Z,1.70
2022-09-07T14:48:31.487Z,1.58
2022-09-07T14:51:36.732Z,3.15
2022-09-07T14:54:39.905Z,1.70
2022-09-07T14:57:41.718Z,4.68
2022-09-07T15:04:19.529Z,2.20
2022-09-07T15:07:40.981Z,2.80
2022-09-07T15:11:32.901Z,2.10
2022-09-07T15:14:19.895Z,2.22
2022-09-07T15:20:46.318Z,1.40
2022-09-07T15:23:57.082Z,1.20
2022-09-07T15:27:02.563Z,0.90
2022-09-07T15:30:05.244Z,1.08
2022-09-07T15:33:07.033Z,1.52
2022-09-07T15:36:14.741Z,1.20
2022-09-07T15:39:19.619Z,1.55
2022-09-07T15:45:43.539Z,1.52
2022-09-07T15:48:51.344Z,1.50
2022-09-07T15:52:08.419Z,1.50
2022-09-07T15:55:11.398Z,1.60
2022-09-07T15:58:13.219Z,1.58
2022-09-07T16:04:38.792Z,1.63
2022-09-07T16:11:18.532Z,2.03
2022-09-07T16:14:20.771Z,2.25
2022-09-07T16:17:26.897Z,1.67
2022-09-07T16:20:32.033Z,2.08
2022-09-07T16:23:34.272Z,2.20
2022-09-07T16:26:36.797Z,1.80
2022-09-07T16:29:38.903Z,1.98
2022-09-07T16:32:45.416Z,2.10
2022-09-07T16:36:01.618Z,2.17
2022-09-07T16:39:03.911Z,4.93
2022-09-07T16:42:06.454Z,6.93
2022-09-07T16:48:33.249Z,6.75
2022-09-07T16:51:35.828Z,6.50
2022-09-07T16:54:37.726Z,5.57
2022-09-07T17:01:02.696Z,5.55
2022-09-07T17:04:09.898Z,6.18
2022-09-07T17:07:14.997Z,5.80
2022-09-07T17:10:17.275Z,6.13
2022-09-07T17:13:20.214Z,5.73
2022-09-07T17:16:42.194Z,7.15
2022-09-07T17:19:44.452Z,11.38
2022-09-07T17:22:47.598Z,13.07
2022-09-07T17:25:49.886Z,13.97
2022-09-07T17:28:53.183Z,49.30
2022-09-07T17:35:26.741Z,55.47
2022-09-07T17:42:01.116Z,42.60
2022-09-07T17:45:04.354Z,35.63
2022-09-07T17:48:06.366Z,21.98
2022-09-07T17:51:11.986Z,14.50
2022-09-07T17:54:21.392Z,14.32
2022-09-07T17:57:23.286Z,13.00
2022-09-07T18:00:33.446Z,11.75
2022-09-07T18:03:37.973Z,10.65
2022-09-07T18:06:43.852Z,11.68
2022-09-07T18:09:47.112Z,11.77
2022-09-07T18:12:49.461Z,11.23
2022-09-07T18:15:55.778Z,8.43
2022-09-07T18:19:00.884Z,8.52
2022-09-07T18:22:03.984Z,8.50
2022-09-07T18:25:10.139Z,7.95
2022-09-07T18:31:35.314Z,8.13
2022-09-07T18:34:40.568Z,7.70
2022-09-07T18:37:42.985Z,7.70
2022-09-07T18:40:45.392Z,7.60
2022-09-07T18:46:50.103Z,7.72
2022-09-07T18:49:52.125Z,7.60
2022-09-07T18:53:04.190Z,7.00
2022-09-07T18:56:21.234Z,7.03
2022-09-07T18:59:23.303Z,7.18
2022-09-07T19:02:26.928Z,6.97
2022-09-07T19:05:52.806Z,6.80
2022-09-07T19:08:55.966Z,7.10
2022-09-07T19:15:00.781Z,7.07
2022-09-07T19:18:04.941Z,6.33
2022-09-07T19:21:12.333Z,6.78
2022-09-07T19:24:19.228Z,7.07
2022-09-07T19:27:21.188Z,6.60
2022-09-07T19:30:23.906Z,6.78
2022-09-07T19:33:26.454Z,6.72
2022-09-07T19:36:31.171Z,7.07
2022-09-07T19:39:33.292Z,5.97
2022-09-07T19:42:42.605Z,5.85
2022-09-07T19:45:45.000Z,6.13
2022-09-07T19:48:47.112Z,6.30
2022-09-07T19:51:52.034Z,6.22
2022-09-07T19:54:54.359Z,5.80
2022-09-07T19:57:56.225Z,6.28
2022-09-07T20:00:58.169Z,6.53
2022-09-07T20:04:03.420Z,5.90
2022-09-07T20:07:06.739Z,6.07
2022-09-07T20:10:09.005Z,6.10
2022-09-07T20:13:10.860Z,6.57
2022-09-07T20:16:16.453Z,5.38
2022-09-07T20:19:18.479Z,5.78
2022-09-07T20:22:20.405Z,5.60
2022-09-07T20:25:22.330Z,4.68
2022-09-07T20:28:24.483Z,5.07
2022-09-07T20:31:26.447Z,4.47
2022-09-07T20:34:28.857Z,4.90
2022-09-07T20:37:31.124Z,5.28
2022-09-07T20:40:33.607Z,4.80
2022-09-07T20:43:35.480Z,4.65
2022-09-07T20:46:37.372Z,4.60
2022-09-07T20:49:39.748Z,4.43
2022-09-07T20:52:41.728Z,3.90
2022-09-07T20:55:43.599Z,4.68
2022-09-07T20:58:46.839Z,4.40
2022-09-07T21:01:49.537Z,4.10
2022-09-07T21:04:51.479Z,4.88
2022-09-07T21:07:53.399Z,3.95
2022-09-07T21:10:55.280Z,4.07
2022-09-07T21:14:00.128Z,3.70
2022-09-07T21:17:01.995Z,4.22
2022-09-07T21:20:04.290Z,3.65
2022-09-07T21:23:06.196Z,4.07
2022-09-07T21:26:08.238Z,3.83
2022-09-07T21:29:15.206Z,3.93
2022-09-07T21:32:17.509Z,3.80
2022-09-07T21:35:19.805Z,3.17
2022-09-07T21:38:22.679Z,2.95
2022-09-07T21:41:25.496Z,3.00
2022-09-07T21:44:27.478Z,3.50
2022-09-07T21:47:29.356Z,3.23
2022-09-07T21:50:31.246Z,3.03
2022-09-07T21:53:33.637Z,3.20
2022-09-07T21:56:35.800Z,2.95
2022-09-07T21:59:37.653Z,2.57
2022-09-07T22:02:39.548Z,3.10
2022-09-07T22:05:41.421Z,2.40
2022-09-07T22:08:43.274Z,3.10
2022-09-07T22:11:46.166Z,2.80
2022-09-07T22:17:53.517Z,2.70
2022-09-07T22:21:07.438Z,2.72
2022-09-07T22:24:11.791Z,2.50
2022-09-07T22:27:13.760Z,2.70
2022-09-07T22:30:15.856Z,2.80
2022-09-07T22:33:17.737Z,2.87
2022-09-07T22:36:26.192Z,2.90
2022-09-07T22:39:28.112Z,2.67
2022-09-07T22:42:29.970Z,2.42
2022-09-07T22:45:31.808Z,2.70
2022-09-07T22:48:33.868Z,2.53
2022-09-07T22:51:36.057Z,2.50
2022-09-07T22:54:38.166Z,2.85
2022-09-07T22:57:40.049Z,2.40
2022-09-07T23:00:43.047Z,2.60
2022-09-07T23:06:46.845Z,2.53
2022-09-07T23:09:48.737Z,2.72
2022-09-07T23:12:52.977Z,2.63
2022-09-07T23:15:54.936Z,2.80
2022-09-07T23:19:00.442Z,2.53
2022-09-07T23:22:02.318Z,2.58
2022-09-07T23:25:04.668Z,2.70
2022-09-07T23:28:10.080Z,2.58
2022-09-07T23:31:12.012Z,2.80
2022-09-07T23:34:14.221Z,2.65
2022-09-07T23:37:16.027Z,2.80
2022-09-07T23:40:18.088Z,2.60
2022-09-07T23:43:20.025Z,2.70
2022-09-07T23:46:22.095Z,2.97
2022-09-07T23:49:24.152Z,2.70
2022-09-07T23:52:26.174Z,2.80
2022-09-07T23:55:32.438Z,2.67
2022-09-07T23:58:34.622Z,2.78
